Time;durP1;ratioP1;P1;durP2;ratioP2;P2;SDS_P1;SDS_P2;PMS_P1;PMS_P2;Temp;Humidity;BMP_temperature;BMP_pressure;BME280_temperature;BME280_humidity;BME280_pressure;Samples;Min_cycle;Max_cycle;Signal;HPM_P1;HPM_P2
2023/03/03 00:01:40;;;;;;;;;;;6.00;78.40;;;;;;4923353;28;83858;-37
2023/03/03 00:04:06;;;;;;;;;;;5.90;78.40;;;;;;4922490;28;85425;-37
2023/03/03 00:06:31;;;;;;;;;;;6.00;78.60;;;;;;4923314;28;81991;-36
2023/03/03 00:08:57;;;;;;;;;;;5.90;78.40;;;;;;4925710;28;83811;-37
2023/03/03 00:11:22;;;;;;;;;;;6.00;78.60;;;;;;4926418;28;84514;-36
2023/03/03 00:13:52;;;;;;;;;;;6.00;78.40;;;;;;4926488;28;82549;-37
2023/03/03 00:16:30;;;;;;;;;;;6.00;78.40;;;;;;4926433;28;82962;-37
2023/03/03 00:18:55;;;;;;;;;;;6.00;78.40;;;;;;4926263;28;84370;-37
2023/03/03 00:21:28;;;;;;;;;;;6.00;78.40;;;;;;4929492;28;81276;-37
2023/03/03 00:23:57;;;;;;;;;;;6.00;78.30;;;;;;4926220;28;84192;-37
2023/03/03 00:26:29;;;;;;;;;;;6.00;78.30;;;;;;4926175;28;82026;-37
2023/03/03 00:28:55;;;;;;;;;;;6.00;78.20;;;;;;4925873;28;82954;-37
2023/03/03 00:31:27;;;;;;;;;;;6.00;78.10;;;;;;4926131;28;84306;-36
2023/03/03 00:33:54;;;;;;;;;;;6.00;78.20;;;;;;4926559;28;82074;-37
2023/03/03 00:36:22;;;;;;;;;;;6.00;78.20;;;;;;4926172;28;83448;-36
2023/03/03 00:38:48;;;;;;;;;;;6.00;78.30;;;;;;4925922;28;83672;-36
2023/03/03 00:41:24;;;;;;;;;;;5.90;78.20;;;;;;4928853;28;82109;-36
2023/03/03 00:43:50;;;;;;;;;;;5.90;78.20;;;;;;4925223;28;84231;-37
2023/03/03 00:46:18;;;;;;;;;;;5.90;78.30;;;;;;4926744;28;81369;-36
2023/03/03 00:48:43;;;;;;;;;;;5.90;78.30;;;;;;4926073;28;82859;-37
2023/03/03 00:51:29;;;;;;;;;;;5.90;78.30;;;;;;4925856;28;84544;-37
2023/03/03 00:53:55;;;;;;;;;;;5.90;78.30;;;;;;4925593;28;82944;-36
2023/03/03 00:56:21;;;;;;;;;;;5.90;78.30;;;;;;4925749;28;86964;-37
2023/03/03 00:58:47;;;;;;;;;;;5.90;78.40;;;;;;4925797;28;84257;-37
2023/03/03 01:01:13;;;;;;;;;;;5.90;78.30;;;;;;4925807;28;82084;-37
2023/03/03 01:03:38;;;;;;;;;;;5.90;78.30;;;;;;4928406;28;83994;-37
2023/03/03 01:06:04;;;;;;;;;;;5.90;78.40;;;;;;4925697;28;82109;-37
2023/03/03 01:08:29;;;;;;;;;;;5.90;78.50;;;;;;4925914;28;83926;-36
2023/03/03 01:10:56;;;;;;;;;;;5.80;78.50;;;;;;4925970;28;82655;-37
2023/03/03 01:13:23;;;;;;;;;;;5.80;78.50;;;;;;4925689;28;81959;-37
2023/03/03 01:15:49;;;;;;;;;;;5.90;78.50;;;;;;4925813;28;83916;-37
2023/03/03 01:18:14;;;;;;;;;;;5.80;78.40;;;;;;4924759;28;84135;-36
2023/03/03 01:20:40;;;;;;;;;;;5.80;78.40;;;;;;4925854;28;82002;-37
2023/03/03 01:23:06;;;;;;;;;;;5.90;78.50;;;;;;4925761;28;82670;-37
2023/03/03 01:25:31;;;;;;;;;;;5.90;78.40;;;;;;4927967;28;84804;-37
2023/03/03 01:27:57;;;;;;;;;;;5.80;78.50;;;;;;4925699;28;82843;-37
2023/03/03 01:30:23;;;;;;;;;;;5.90;78.40;;;;;;4925488;28;84160;-37
2023/03/03 01:32:48;;;;;;;;;;;5.80;78.40;;;;;;4925525;28;82091;-37
2023/03/03 01:35:14;;;;;;;;;;;5.80;78.40;;;;;;4925855;28;83239;-37
2023/03/03 01:37:39;;;;;;;;;;;5.90;78.40;;;;;;4925664;28;83157;-36
2023/03/03 01:40:06;;;;;;;;;;;5.90;78.40;;;;;;4925344;28;82097;-37
2023/03/03 01:42:31;;;;;;;;;;;5.90;78.30;;;;;;4924544;28;82808;-37
2023/03/03 01:45:14;;;;;;;;;;;5.80;78.20;;;;;;4925292;28;84617;-36
2023/03/03 01:47:41;;;;;;;;;;;5.80;78.40;;;;;;4928157;28;82012;-37
2023/03/03 01:50:11;;;;;;;;;;;5.80;78.40;;;;;;4925047;28;84620;-37
2023/03/03 01:52:37;;;;;;;;;;;5.80;78.40;;;;;;4925279;28;82042;-37
2023/03/03 01:55:08;;;;;;;;;;;5.80;78.40;;;;;;4925327;28;83933;-37
2023/03/03 01:57:36;;;;;;;;;;;5.80;78.40;;;;;;4925262;28;83433;-37
2023/03/03 02:00:02;;;;;;;;;;;5.80;78.50;;;;;;4925719;28;81366;-37
2023/03/03 02:02:28;;;;;;;;;;;5.80;78.50;;;;;;4925136;28;84541;-37
2023/03/03 02:04:54;;;;;;;;;;;5.80;78.50;;;;;;4925225;28;82184;-37
2023/03/03 02:07:21;;;;;;;;;;;5.70;78.50;;;;;;4924378;28;82999;-36
2023/03/03 02:09:49;;;;;;;;;;;5.70;78.40;;;;;;4927656;28;84873;-37
2023/03/03 02:12:16;;;;;;;;;;;5.70;78.50;;;;;;4925451;28;81863;-37
2023/03/03 02:14:41;;;;;;;;;;;5.70;78.60;;;;;;4925095;28;83654;-36
2023/03/03 02:17:07;;;;;;;;;;;5.70;78.50;;;;;;4924806;28;84408;-38
2023/03/03 02:19:32;;;;;;;;;;;5.70;78.60;;;;;;4925197;28;82075;-36
2023/03/03 02:22:00;;;;;;;;;;;5.70;78.80;;;;;;4924756;28;83646;-37
2023/03/03 02:24:29;;;;;;;;;;;5.70;78.70;;;;;;4925547;28;83550;-36
2023/03/03 02:26:54;;;;;;;;;;;5.70;78.60;;;;;;4924824;28;82009;-36
2023/03/03 02:29:20;;;;;;;;;;;5.70;78.60;;;;;;4927259;28;84045;-36
2023/03/03 02:31:45;;;;;;;;;;;5.70;78.50;;;;;;4923555;28;82934;-36
2023/03/03 02:34:11;;;;;;;;;;;5.70;78.50;;;;;;4924999;28;83337;-37
2023/03/03 02:36:38;;;;;;;;;;;5.70;78.50;;;;;;4924496;28;83581;-37
2023/03/03 02:39:03;;;;;;;;;;;5.70;78.60;;;;;;4924601;28;81941;-36
2023/03/03 02:41:31;;;;;;;;;;;5.70;78.50;;;;;;4924898;28;82224;-36
2023/03/03 02:43:57;;;;;;;;;;;5.70;78.60;;;;;;4923999;28;85958;-37
2023/03/03 02:46:22;;;;;;;;;;;5.70;78.60;;;;;;4924629;28;82026;-37
2023/03/03 02:48:48;;;;;;;;;;;5.70;78.70;;;;;;4925113;28;83920;-37
2023/03/03 02:51:13;;;;;;;;;;;5.70;78.60;;;;;;4926927;28;83578;-36
2023/03/03 02:53:39;;;;;;;;;;;5.70;78.70;;;;;;4924789;28;82384;-36
2023/03/03 02:56:06;;;;;;;;;;;5.70;78.60;;;;;;4924096;28;83686;-36
2023/03/03 02:58:31;;;;;;;;;;;5.70;78.50;;;;;;4924269;28;82094;-36
2023/03/03 03:00:57;;;;;;;;;;;5.70;78.50;;;;;;4924421;28;84014;-37
2023/03/03 03:03:22;;;;;;;;;;;5.60;78.60;;;;;;4924200;28;84694;-37
2023/03/03 03:05:48;;;;;;;;;;;5.70;78.70;;;;;;4924080;28;82343;-37
2023/03/03 03:08:14;;;;;;;;;;;5.60;78.70;;;;;;4924373;28;84013;-37
2023/03/03 03:10:39;;;;;;;;;;;5.60;78.60;;;;;;4924363;28;84472;-36
2023/03/03 03:13:04;;;;;;;;;;;5.60;78.60;;;;;;4927377;28;81308;-36
2023/03/03 03:15:30;;;;;;;;;;;5.60;78.70;;;;;;4923971;28;84327;-36
2023/03/03 03:17:56;;;;;;;;;;;5.60;78.80;;;;;;4924060;28;82073;-37
2023/03/03 03:20:21;;;;;;;;;;;5.60;78.70;;;;;;4923577;28;83989;-37
2023/03/03 03:22:47;;;;;;;;;;;5.60;78.60;;;;;;4923877;28;84664;-37
2023/03/03 03:25:12;;;;;;;;;;;5.60;78.70;;;;;;4923859;28;82125;-37
2023/03/03 03:27:38;;;;;;;;;;;5.60;78.60;;;;;;4924108;28;83032;-37
2023/03/03 03:30:03;;;;;;;;;;;5.60;78.70;;;;;;4923701;28;84696;-36
2023/03/03 03:32:29;;;;;;;;;;;5.60;78.60;;;;;;4924065;28;82025;-37
2023/03/03 03:34:54;;;;;;;;;;;5.60;78.60;;;;;;4926166;28;84183;-37
2023/03/03 03:37:20;;;;;;;;;;;5.60;78.60;;;;;;4924107;28;81356;-37
2023/03/03 03:39:45;;;;;;;;;;;5.60;78.70;;;;;;4923827;28;82121;-37
2023/03/03 03:42:11;;;;;;;;;;;5.60;78.70;;;;;;4923854;28;84628;-37
2023/03/03 03:44:36;;;;;;;;;;;5.60;78.70;;;;;;4926015;28;83010;-36
2023/03/03 03:47:02;;;;;;;;;;;5.60;78.70;;;;;;4926803;28;84005;-36
2023/03/03 03:49:27;;;;;;;;;;;5.60;78.70;;;;;;4926557;28;84897;-37
2023/03/03 03:51:53;;;;;;;;;;;5.60;78.70;;;;;;4926825;28;82247;-37
2023/03/03 03:54:18;;;;;;;;;;;5.60;78.70;;;;;;4926563;28;83892;-37
2023/03/03 03:56:44;;;;;;;;;;;5.60;78.70;;;;;;4929153;28;84956;-37
2023/03/03 03:59:09;;;;;;;;;;;5.60;78.70;;;;;;4926667;28;83880;-37
2023/03/03 04:01:35;;;;;;;;;;;5.60;78.50;;;;;;4927131;28;83833;-36
2023/03/03 04:04:01;;;;;;;;;;;5.60;78.60;;;;;;4926547;28;82100;-36
2023/03/03 04:06:27;;;;;;;;;;;5.50;78.70;;;;;;4926596;28;82477;-37
2023/03/03 04:08:53;;;;;;;;;;;5.60;78.70;;;;;;4926056;28;83842;-36
2023/03/03 04:11:19;;;;;;;;;;;5.50;78.70;;;;;;4926529;28;82256;-37
2023/03/03 04:13:44;;;;;;;;;;;5.50;78.70;;;;;;4926840;28;82348;-37
2023/03/03 04:16:10;;;;;;;;;;;5.60;78.70;;;;;;4926272;28;84606;-36
2023/03/03 04:18:35;;;;;;;;;;;5.60;78.60;;;;;;4929019;28;82120;-36
2023/03/03 04:21:01;;;;;;;;;;;5.50;78.70;;;;;;4926169;28;83438;-37
2023/03/03 04:23:26;;;;;;;;;;;5.50;78.70;;;;;;4926341;28;82197;-36
2023/03/03 04:25:52;;;;;;;;;;;5.50;78.80;;;;;;4926724;28;84094;-37
2023/03/03 04:28:17;;;;;;;;;;;5.50;78.80;;;;;;4925908;28;84487;-36
2023/03/03 04:30:43;;;;;;;;;;;5.50;78.80;;;;;;4926369;28;82059;-36
2023/03/03 04:33:09;;;;;;;;;;;5.50;78.80;;;;;;4925702;28;83966;-36
2023/03/03 04:35:34;;;;;;;;;;;5.50;78.70;;;;;;4926017;28;85199;-36
2023/03/03 04:37:59;;;;;;;;;;;5.50;78.70;;;;;;4929030;28;81981;-36
2023/03/03 04:40:25;;;;;;;;;;;5.50;78.60;;;;;;4925812;28;83469;-37
2023/03/03 04:42:51;;;;;;;;;;;5.50;78.70;;;;;;4926091;28;82093;-36
2023/03/03 04:45:16;;;;;;;;;;;5.50;78.70;;;;;;4925870;28;83785;-37
2023/03/03 04:47:42;;;;;;;;;;;5.50;78.70;;;;;;4925894;28;84516;-36
2023/03/03 04:50:08;;;;;;;;;;;5.50;78.60;;;;;;4926887;28;81293;-36
2023/03/03 04:52:34;;;;;;;;;;;5.50;78.70;;;;;;4924578;28;83141;-36
2023/03/03 04:54:59;;;;;;;;;;;5.50;78.80;;;;;;4925252;28;84222;-36
2023/03/03 04:57:25;;;;;;;;;;;5.40;78.80;;;;;;4925304;28;83041;-37
2023/03/03 04:59:50;;;;;;;;;;;5.40;78.90;;;;;;4928717;28;83283;-36
2023/03/03 05:02:16;;;;;;;;;;;5.40;78.90;;;;;;4926033;28;82056;-37
2023/03/03 05:04:41;;;;;;;;;;;5.40;78.90;;;;;;4926330;28;82310;-37
2023/03/03 05:07:07;;;;;;;;;;;5.40;78.80;;;;;;4925604;28;84383;-37
2023/03/03 05:09:33;;;;;;;;;;;5.40;78.80;;;;;;4925985;28;81825;-36
2023/03/03 05:11:58;;;;;;;;;;;5.40;78.80;;;;;;4925743;28;83629;-36
2023/03/03 05:14:25;;;;;;;;;;;5.40;78.80;;;;;;4926187;28;83654;-37
2023/03/03 05:16:50;;;;;;;;;;;5.40;78.80;;;;;;4926036;28;82079;-36
2023/03/03 05:19:16;;;;;;;;;;;5.40;78.70;;;;;;4925780;28;83874;-37
2023/03/03 05:21:41;;;;;;;;;;;5.40;78.80;;;;;;4927498;28;85889;-37
2023/03/03 05:24:11;;;;;;;;;;;5.40;78.70;;;;;;4925965;28;83432;-36
2023/03/03 05:26:36;;;;;;;;;;;5.40;78.80;;;;;;4925376;28;84230;-37
2023/03/03 05:29:02;;;;;;;;;;;5.40;78.90;;;;;;4925471;28;82694;-37
2023/03/03 05:31:28;;;;;;;;;;;5.40;78.80;;;;;;4925759;28;84158;-37
2023/03/03 05:33:53;;;;;;;;;;;5.40;78.80;;;;;;4925303;28;84208;-37
2023/03/03 05:36:19;;;;;;;;;;;5.40;78.80;;;;;;4925290;28;82062;-37
2023/03/03 05:38:44;;;;;;;;;;;5.40;78.90;;;;;;4926046;28;83632;-36
2023/03/03 05:41:10;;;;;;;;;;;5.40;79.00;;;;;;4924946;28;84632;-37
2023/03/03 05:43:36;;;;;;;;;;;5.40;78.80;;;;;;4928102;28;82088;-36
2023/03/03 05:46:02;;;;;;;;;;;5.30;78.70;;;;;;4924440;28;85577;-36
2023/03/03 05:48:27;;;;;;;;;;;5.40;78.80;;;;;;4925383;28;81989;-36
2023/03/03 05:50:53;;;;;;;;;;;5.40;78.80;;;;;;4925502;28;82929;-37
2023/03/03 05:53:18;;;;;;;;;;;5.40;78.90;;;;;;4925103;28;83537;-37
2023/03/03 05:55:44;;;;;;;;;;;5.40;78.80;;;;;;4925185;28;82067;-37
2023/03/03 05:58:10;;;;;;;;;;;5.40;78.80;;;;;;4925080;28;83746;-36
2023/03/03 06:00:36;;;;;;;;;;;5.40;78.80;;;;;;4925268;28;83459;-36
2023/03/03 06:03:02;;;;;;;;;;;5.40;78.80;;;;;;4925967;28;81300;-37
2023/03/03 06:05:27;;;;;;;;;;;5.40;78.70;;;;;;4926529;28;83324;-36
2023/03/03 06:07:53;;;;;;;;;;;5.40;78.60;;;;;;4925147;28;82117;-36
2023/03/03 06:10:18;;;;;;;;;;;5.30;78.70;;;;;;4925138;28;83273;-37
2023/03/03 06:12:44;;;;;;;;;;;5.40;78.80;;;;;;4924893;28;83558;-36
2023/03/03 06:15:09;;;;;;;;;;;5.30;78.80;;;;;;4924856;28;82116;-37
2023/03/03 06:17:35;;;;;;;;;;;5.30;78.80;;;;;;4925131;28;83602;-36
2023/03/03 06:20:01;;;;;;;;;;;5.30;78.90;;;;;;4925257;28;83055;-36
2023/03/03 06:22:26;;;;;;;;;;;5.30;78.90;;;;;;4925007;28;82944;-36
2023/03/03 06:24:51;;;;;;;;;;;5.30;78.80;;;;;;4924987;28;84267;-36
2023/03/03 06:27:17;;;;;;;;;;;5.30;78.80;;;;;;4927957;28;83723;-36
2023/03/03 06:29:43;;;;;;;;;;;5.30;78.80;;;;;;4925070;28;83433;-37
2023/03/03 06:32:09;;;;;;;;;;;5.30;78.80;;;;;;4924592;28;84348;-36
2023/03/03 06:34:34;;;;;;;;;;;5.30;78.80;;;;;;4924166;28;82981;-36
2023/03/03 06:37:00;;;;;;;;;;;5.30;78.80;;;;;;4924916;28;83291;-36
2023/03/03 06:39:25;;;;;;;;;;;5.30;78.70;;;;;;4924737;28;83132;-36
2023/03/03 06:41:51;;;;;;;;;;;5.30;78.80;;;;;;4925002;28;82212;-37
2023/03/03 06:44:16;;;;;;;;;;;5.30;78.70;;;;;;4924588;28;82975;-37
2023/03/03 06:46:42;;;;;;;;;;;5.30;78.60;;;;;;4927098;28;84457;-37
2023/03/03 06:49:07;;;;;;;;;;;5.30;78.60;;;;;;4924713;28;82832;-36
2023/03/03 06:51:34;;;;;;;;;;;5.30;78.50;;;;;;4925092;28;82256;-37
2023/03/03 06:54:09;;;;;;;;;;;5.30;78.70;;;;;;4924364;28;81998;-37
2023/03/03 06:56:36;;;;;;;;;;;5.30;78.70;;;;;;4924549;28;83950;-36
2023/03/03 06:59:05;;;;;;;;;;;5.30;78.70;;;;;;4923866;28;83849;-37
2023/03/03 07:01:34;;;;;;;;;;;5.30;78.70;;;;;;4924367;28;81981;-36
2023/03/03 07:03:59;;;;;;;;;;;5.20;78.80;;;;;;4924488;28;82835;-37
2023/03/03 07:06:27;;;;;;;;;;;5.20;78.80;;;;;;4923984;28;83100;-37
2023/03/03 07:08:53;;;;;;;;;;;5.30;78.90;;;;;;4927047;28;82086;-37
2023/03/03 07:11:22;;;;;;;;;;;5.30;78.80;;;;;;4924163;28;84283;-37
2023/03/03 07:13:51;;;;;;;;;;;5.30;78.80;;;;;;4924154;28;82073;-36
2023/03/03 07:16:18;;;;;;;;;;;5.20;78.80;;;;;;4925157;28;82140;-37
2023/03/03 07:18:59;;;;;;;;;;;5.30;78.70;;;;;;4927014;28;83361;-37
2023/03/03 07:21:30;;;;;;;;;;;5.20;78.80;;;;;;4927228;28;82123;-36
2023/03/03 07:23:56;;;;;;;;;;;5.30;78.60;;;;;;4926492;28;83472;-36
2023/03/03 07:26:25;;;;;;;;;;;5.20;78.70;;;;;;4926928;28;84763;-36
2023/03/03 07:28:54;;;;;;;;;;;5.30;78.80;;;;;;4927292;28;82102;-36
2023/03/03 07:31:33;;;;;;;;;;;5.20;78.80;;;;;;4929623;28;82319;-37
2023/03/03 07:33:59;;;;;;;;;;;5.20;78.80;;;;;;4927060;28;82113;-36
2023/03/03 07:36:27;;;;;;;;;;;5.20;78.80;;;;;;4927127;28;84026;-37
2023/03/03 07:38:54;;;;;;;;;;;5.20;78.70;;;;;;4923435;28;89374;-36
2023/03/03 07:41:22;;;;;;;;;;;5.30;78.80;;;;;;4923894;28;86364;-36
2023/03/03 07:44:17;;;;;;;;;;;5.30;78.70;;;;;;4923045;28;87286;-36
2023/03/03 07:46:43;;;;;;;;;;;5.20;78.80;;;;;;4923236;28;88677;-37
2023/03/03 07:49:42;;;;;;;;;;;5.20;78.80;;;;;;4922729;28;88513;-36
2023/03/03 07:52:23;;;;;;;;;;;5.30;78.80;;;;;;4901229;28;88442;-37
2023/03/03 07:54:48;;;;;;;;;;;5.20;78.80;;;;;;4925857;28;89407;-36
2023/03/03 07:57:25;;;;;;;;;;;5.20;78.80;;;;;;4923347;28;89152;-37
2023/03/03 07:59:53;;;;;;;;;;;5.20;78.90;;;;;;4922827;28;89339;-36
2023/03/03 08:02:37;;;;;;;;;;;5.20;78.90;;;;;;4923323;28;87142;-37
2023/03/03 08:05:22;;;;;;;;;;;5.20;78.90;;;;;;4923372;28;88761;-37
2023/03/03 08:07:49;;;;;;;;;;;5.20;78.80;;;;;;4923524;28;88791;-36
2023/03/03 08:10:42;;;;;;;;;;;5.20;78.90;;;;;;4923346;28;86756;-36
2023/03/03 08:13:27;;;;;;;;;;;5.20;78.90;;;;;;4921624;28;87441;-36
2023/03/03 08:16:01;;;;;;;;;;;5.20;79.00;;;;;;4920762;28;91799;-36
2023/03/03 08:18:34;;;;;;;;;;;5.20;79.00;;;;;;4926173;28;87105;-37
2023/03/03 08:21:01;;;;;;;;;;;5.20;79.00;;;;;;4922914;28;89796;-37
2023/03/03 08:23:27;;;;;;;;;;;5.20;79.10;;;;;;4922950;28;87054;-36
2023/03/03 08:25:52;;;;;;;;;;;5.20;79.20;;;;;;4922865;28;88898;-36
2023/03/03 08:28:19;;;;;;;;;;;5.20;79.10;;;;;;4922129;28;88354;-36
2023/03/03 08:30:45;;;;;;;;;;;5.20;79.10;;;;;;4923259;28;87083;-37
2023/03/03 08:33:10;;;;;;;;;;;5.20;79.10;;;;;;4923570;28;87295;-37
2023/03/03 08:35:36;;;;;;;;;;;5.20;79.20;;;;;;4922755;28;87978;-36
2023/03/03 08:38:02;;;;;;;;;;;5.20;79.20;;;;;;4922895;28;87006;-36
2023/03/03 08:40:27;;;;;;;;;;;5.20;79.10;;;;;;4924214;28;88995;-37
2023/03/03 08:42:53;;;;;;;;;;;5.20;79.10;;;;;;4922489;28;87020;-37
2023/03/03 08:45:19;;;;;;;;;;;5.20;79.10;;;;;;4922680;28;88799;-36
2023/03/03 08:47:44;;;;;;;;;;;5.20;79.10;;;;;;4922358;28;89354;-37
2023/03/03 08:50:11;;;;;;;;;;;5.20;79.20;;;;;;4922819;28;86976;-36
2023/03/03 08:52:36;;;;;;;;;;;5.20;79.10;;;;;;4922611;28;88726;-36
2023/03/03 08:55:02;;;;;;;;;;;5.10;79.20;;;;;;4922207;28;89322;-36
2023/03/03 08:57:28;;;;;;;;;;;5.20;79.20;;;;;;4923063;28;86353;-36
2023/03/03 08:59:53;;;;;;;;;;;5.20;79.10;;;;;;4925361;28;87879;-37
2023/03/03 09:02:19;;;;;;;;;;;5.20;79.10;;;;;;4922597;28;87145;-36
2023/03/03 09:04:44;;;;;;;;;;;5.20;79.20;;;;;;4922092;28;88389;-37
2023/03/03 09:07:10;;;;;;;;;;;5.20;79.20;;;;;;4922174;28;89256;-37
2023/03/03 09:09:36;;;;;;;;;;;5.20;79.20;;;;;;4922662;28;87492;-37
2023/03/03 09:12:18;;;;;;;;;;;5.10;79.20;;;;;;4922698;28;88908;-37
2023/03/03 09:14:44;;;;;;;;;;;5.10;79.20;;;;;;4921916;28;89498;-36
2023/03/03 09:17:38;;;;;;;;;;;5.10;79.20;;;;;;4922391;28;87279;-37
2023/03/03 09:20:22;;;;;;;;;;;5.20;79.30;;;;;;4913414;28;88727;-37
2023/03/03 09:22:49;;;;;;;;;;;5.20;79.20;;;;;;4925256;28;89036;-37
2023/03/03 09:25:22;;;;;;;;;;;5.20;79.10;;;;;;4922302;28;87106;-37
2023/03/03 09:27:47;;;;;;;;;;;5.20;79.10;;;;;;4922070;28;89416;-36
2023/03/03 09:30:25;;;;;;;;;;;5.20;79.10;;;;;;4921524;28;87880;-37
2023/03/03 09:32:50;;;;;;;;;;;5.20;78.90;;;;;;4922098;28;90384;-37
2023/03/03 09:35:36;;;;;;;;;;;5.20;79.00;;;;;;4921982;28;89268;-37
2023/03/03 09:38:12;;;;;;;;;;;5.20;79.00;;;;;;4922139;28;87204;-37
2023/03/03 09:40:52;;;;;;;;;;;5.20;79.10;;;;;;4921962;28;89049;-36
2023/03/03 09:43:22;;;;;;;;;;;5.20;79.10;;;;;;4921106;28;89462;-36
2023/03/03 09:46:12;;;;;;;;;;;5.20;79.10;;;;;;4925240;28;87061;-37
2023/03/03 09:48:56;;;;;;;;;;;5.20;79.00;;;;;;4922447;28;86625;-37
2023/03/03 09:51:31;;;;;;;;;;;5.20;79.10;;;;;;4921877;28;87257;-36
2023/03/03 09:53:56;;;;;;;;;;;5.20;79.10;;;;;;4922193;28;89012;-37
2023/03/03 09:56:38;;;;;;;;;;;5.20;79.20;;;;;;4921006;28;90402;-37
2023/03/03 09:59:19;;;;;;;;;;;5.20;79.30;;;;;;4922133;28;87076;-37
2023/03/03 10:01:57;;;;;;;;;;;5.20;79.20;;;;;;4921829;28;88437;-37
2023/03/03 10:04:39;;;;;;;;;;;5.20;79.10;;;;;;4921413;28;89514;-36
2023/03/03 10:07:14;;;;;;;;;;;5.20;79.10;;;;;;4922003;28;86964;-37
2023/03/03 10:09:53;;;;;;;;;;;5.20;79.20;;;;;;4924393;28;88713;-36
2023/03/03 10:12:25;;;;;;;;;;;5.20;79.20;;;;;;4921655;28;87000;-36
2023/03/03 10:14:56;;;;;;;;;;;5.20;79.10;;;;;;4922282;28;88721;-37
2023/03/03 10:17:24;;;;;;;;;;;5.20;79.20;;;;;;4921544;28;88041;-37
2023/03/03 10:19:59;;;;;;;;;;;5.20;79.20;;;;;;4921720;28;86854;-37
2023/03/03 10:22:27;;;;;;;;;;;5.20;79.20;;;;;;4921302;28;88000;-37
2023/03/03 10:24:53;;;;;;;;;;;5.20;79.20;;;;;;4921155;28;89292;-36
2023/03/03 10:27:18;;;;;;;;;;;5.20;79.30;;;;;;4921680;28;87031;-36
2023/03/03 10:29:44;;;;;;;;;;;5.20;79.20;;;;;;4921823;28;86983;-37
2023/03/03 10:32:31;;;;;;;;;;;5.20;79.20;;;;;;4924264;28;88490;-37
2023/03/03 10:35:15;;;;;;;;;;;5.20;79.20;;;;;;4921623;28;87844;-36
2023/03/03 10:37:40;;;;;;;;;;;5.20;79.20;;;;;;4920999;28;89678;-37
2023/03/03 10:40:27;;;;;;;;;;;5.20;79.30;;;;;;4921659;28;86332;-36
2023/03/03 10:42:52;;;;;;;;;;;5.20;79.30;;;;;;4921098;28;88544;-37
2023/03/03 10:45:36;;;;;;;;;;;5.20;79.30;;;;;;4921412;28;89578;-37
2023/03/03 10:48:08;;;;;;;;;;;5.20;79.30;;;;;;4920468;28;88274;-37
2023/03/03 10:50:45;;;;;;;;;;;5.20;79.20;;;;;;4921637;28;88626;-37
2023/03/03 10:53:14;;;;;;;;;;;5.20;79.20;;;;;;4920207;28;89398;-37
2023/03/03 10:55:48;;;;;;;;;;;5.20;79.30;;;;;;4924022;28;87026;-36
2023/03/03 10:58:17;;;;;;;;;;;5.20;79.40;;;;;;4920850;28;89599;-36
2023/03/03 11:00:47;;;;;;;;;;;5.20;79.40;;;;;;4921039;28;87181;-37
2023/03/03 11:03:31;;;;;;;;;;;5.20;79.40;;;;;;4921243;28;88822;-36
2023/03/03 11:05:58;;;;;;;;;;;5.30;79.40;;;;;;4921340;28;86530;-37
2023/03/03 11:08:43;;;;;;;;;;;5.20;79.20;;;;;;4920888;28;87075;-37
2023/03/03 11:11:26;;;;;;;;;;;5.20;79.20;;;;;;4920999;28;88977;-37
2023/03/03 11:13:55;;;;;;;;;;;5.20;79.30;;;;;;4920047;28;88913;-37
2023/03/03 11:16:28;;;;;;;;;;;5.20;79.30;;;;;;4923873;28;87455;-37
2023/03/03 11:19:12;;;;;;;;;;;5.20;79.40;;;;;;4920548;28;88416;-37
2023/03/03 11:21:41;;;;;;;;;;;5.20;79.20;;;;;;4920724;28;87946;-37
2023/03/03 11:24:30;;;;;;;;;;;5.20;79.30;;;;;;4921054;28;88755;-37
2023/03/03 11:27:14;;;;;;;;;;;5.20;79.50;;;;;;4927502;28;88778;-37
2023/03/03 11:29:46;;;;;;;;;;;5.20;79.40;;;;;;4920694;28;87703;-37
2023/03/03 11:32:29;;;;;;;;;;;5.30;79.30;;;;;;4921205;28;88796;-37
2023/03/03 11:34:59;;;;;;;;;;;5.20;79.40;;;;;;4920170;28;89286;-37
2023/03/03 11:37:34;;;;;;;;;;;5.20;79.30;;;;;;4920647;28;87246;-36
2023/03/03 11:40:02;;;;;;;;;;;5.20;79.20;;;;;;4922511;28;88902;-36
2023/03/03 11:42:34;;;;;;;;;;;5.20;79.30;;;;;;4919859;28;87289;-37
2023/03/03 11:45:01;;;;;;;;;;;5.20;79.40;;;;;;4920776;28;87453;-37
2023/03/03 11:47:44;;;;;;;;;;;5.20;79.30;;;;;;4920134;28;88146;-36
2023/03/03 11:50:09;;;;;;;;;;;5.20;79.30;;;;;;4920349;28;87145;-37
2023/03/03 11:52:53;;;;;;;;;;;5.20;79.50;;;;;;4920532;28;88863;-36
2023/03/03 11:55:24;;;;;;;;;;;5.20;79.50;;;;;;4920280;28;87488;-36
2023/03/03 11:58:15;;;;;;;;;;;5.20;79.40;;;;;;4920909;28;86343;-37
2023/03/03 12:00:49;;;;;;;;;;;5.20;79.50;;;;;;4915444;28;88190;-37
2023/03/03 12:03:18;;;;;;;;;;;5.20;79.50;;;;;;4922785;28;89480;-37
2023/03/03 12:05:43;;;;;;;;;;;5.20;79.50;;;;;;4922577;28;88971;-37
2023/03/03 12:08:09;;;;;;;;;;;5.20;79.40;;;;;;4922956;28;89850;-37
2023/03/03 12:10:49;;;;;;;;;;;5.20;79.60;;;;;;4923261;28;87167;-37
2023/03/03 12:13:33;;;;;;;;;;;5.20;79.70;;;;;;4923138;28;88454;-37
2023/03/03 12:16:05;;;;;;;;;;;5.20;79.50;;;;;;4922921;28;89355;-36
2023/03/03 12:18:31;;;;;;;;;;;5.20;79.60;;;;;;4921701;28;87131;-37
2023/03/03 12:21:12;;;;;;;;;;;5.20;79.60;;;;;;4923361;28;88695;-37
2023/03/03 12:23:49;;;;;;;;;;;5.20;79.60;;;;;;4923308;28;88792;-36
2023/03/03 12:26:14;;;;;;;;;;;5.20;79.50;;;;;;4925929;28;86975;-36
2023/03/03 12:28:43;;;;;;;;;;;5.20;79.70;;;;;;4922885;28;89227;-36
2023/03/03 12:31:17;;;;;;;;;;;5.20;79.30;;;;;;4922374;28;87902;-37
2023/03/03 12:33:51;;;;;;;;;;;5.20;79.60;;;;;;4923250;28;89859;-37
2023/03/03 12:36:35;;;;;;;;;;;5.20;79.50;;;;;;4922569;28;89231;-37
2023/03/03 12:39:04;;;;;;;;;;;5.20;79.50;;;;;;4923224;28;87102;-37
2023/03/03 12:41:36;;;;;;;;;;;5.10;79.60;;;;;;4922810;28;88879;-37
2023/03/03 12:44:04;;;;;;;;;;;5.10;79.90;;;;;;4922201;28;89388;-36
2023/03/03 12:46:42;;;;;;;;;;;5.10;79.90;;;;;;4922755;28;86956;-37
2023/03/03 12:49:07;;;;;;;;;;;5.10;79.90;;;;;;4925443;28;88968;-37
2023/03/03 12:51:33;;;;;;;;;;;5.10;80.00;;;;;;4922728;28;87048;-36
2023/03/03 12:53:58;;;;;;;;;;;5.10;80.00;;;;;;4922844;28;89002;-37
2023/03/03 12:56:34;;;;;;;;;;;5.10;80.10;;;;;;4921644;28;90306;-36
2023/03/03 12:59:19;;;;;;;;;;;5.10;80.00;;;;;;4922673;28;87069;-37
2023/03/03 13:02:14;;;;;;;;;;;5.10;80.10;;;;;;4922714;28;88773;-37
2023/03/03 13:04:46;;;;;;;;;;;5.10;80.20;;;;;;4922422;28;89167;-36
2023/03/03 13:07:30;;;;;;;;;;;5.10;80.30;;;;;;4922563;28;87099;-37
2023/03/03 13:09:55;;;;;;;;;;;5.10;80.30;;;;;;4925205;28;88782;-36
2023/03/03 13:12:27;;;;;;;;;;;5.10;80.30;;;;;;4922316;28;87155;-37
2023/03/03 13:15:07;;;;;;;;;;;5.10;80.30;;;;;;4922892;28;87257;-36
2023/03/03 13:17:35;;;;;;;;;;;5.10;80.30;;;;;;4922123;28;89476;-37
2023/03/03 13:20:17;;;;;;;;;;;5.10;80.30;;;;;;4922459;28;87027;-37
2023/03/03 13:22:49;;;;;;;;;;;5.10;80.20;;;;;;4921774;28;88871;-36
2023/03/03 13:25:39;;;;;;;;;;;5.10;80.30;;;;;;4922133;28;89617;-36
2023/03/03 13:28:09;;;;;;;;;;;5.10;80.40;;;;;;4922343;28;87105;-37
2023/03/03 13:30:37;;;;;;;;;;;5.10;80.40;;;;;;4922389;28;88614;-36
2023/03/03 13:33:21;;;;;;;;;;;5.10;80.40;;;;;;4924421;28;89656;-37
2023/03/03 13:35:50;;;;;;;;;;;5.10;80.40;;;;;;4922379;28;88913;-37
2023/03/03 13:38:28;;;;;;;;;;;5.10;80.30;;;;;;4921955;28;88781;-36
2023/03/03 13:40:57;;;;;;;;;;;5.10;80.40;;;;;;4922620;28;86356;-37
2023/03/03 13:43:27;;;;;;;;;;;5.10;80.30;;;;;;4921774;28;88070;-37
2023/03/03 13:46:00;;;;;;;;;;;5.10;80.30;;;;;;4921544;28;89418;-37
2023/03/03 13:48:49;;;;;;;;;;;5.10;80.40;;;;;;4921358;28;88044;-37
2023/03/03 13:51:28;;;;;;;;;;;5.10;80.30;;;;;;4922269;28;89871;-36
2023/03/03 13:54:04;;;;;;;;;;;5.10;80.30;;;;;;4921810;28;89658;-37
2023/03/03 13:56:48;;;;;;;;;;;5.10;80.40;;;;;;4925032;28;87000;-37
2023/03/03 13:59:20;;;;;;;;;;;5.10;80.40;;;;;;4921886;28;87882;-37
2023/03/03 14:01:52;;;;;;;;;;;5.10;80.30;;;;;;4922355;28;87117;-36
2023/03/03 14:04:30;;;;;;;;;;;5.10;80.30;;;;;;4922169;28;88947;-37
2023/03/03 14:06:59;;;;;;;;;;;5.10;80.40;;;;;;4922162;28;87902;-37
2023/03/03 14:09:25;;;;;;;;;;;5.10;80.40;;;;;;4921566;28;87116;-36
2023/03/03 14:11:59;;;;;;;;;;;5.10;80.30;;;;;;4922174;28;87229;-36
2023/03/03 14:14:25;;;;;;;;;;;5.10;80.30;;;;;;4920747;28;90143;-37
2023/03/03 14:16:56;;;;;;;;;;;5.10;80.40;;;;;;4921815;28;87066;-37
2023/03/03 14:19:29;;;;;;;;;;;5.10;80.50;;;;;;4924365;28;87407;-37
2023/03/03 14:21:55;;;;;;;;;;;5.10;80.90;;;;;;4921718;28;87076;-37
2023/03/03 14:24:24;;;;;;;;;;;5.10;80.50;;;;;;4921768;28;88610;-37
2023/03/03 14:26:54;;;;;;;;;;;5.10;80.50;;;;;;4920312;28;89436;-36
2023/03/03 14:29:25;;;;;;;;;;;5.10;80.40;;;;;;4921554;28;87073;-37
2023/03/03 14:31:51;;;;;;;;;;;5.10;80.30;;;;;;4921875;28;88721;-37
2023/03/03 14:34:37;;;;;;;;;;;5.20;80.30;;;;;;4921380;28;88194;-37
2023/03/03 14:37:20;;;;;;;;;;;5.10;80.30;;;;;;4921620;28;87061;-36
2023/03/03 14:40:04;;;;;;;;;;;5.10;80.40;;;;;;4920980;28;89074;-37
2023/03/03 14:42:29;;;;;;;;;;;5.10;80.50;;;;;;4923110;28;88658;-37
2023/03/03 14:44:58;;;;;;;;;;;5.10;80.40;;;;;;4921877;28;86986;-37
2023/03/03 14:47:28;;;;;;;;;;;5.20;80.40;;;;;;4920990;28;89066;-37